Bryant, Washington
Current Conditions -  °F | °C
As of 2:35 PM on Wednesday 22 Oct 2014 (Local Time) from KAWO Reporting Station
Overcast Overcast  
Wind Chill: 55°   Ceiling: 2000
Heat Index: 55°   Visibility: 3mi
Dew Point: 50°   Wind: 0mph
Humidity: 82%   Direction: NA
Pressure: 29.68"   Gusts: NA
Location:  48.2067°N, 121.947°W
Report Text: KAWO 222135Z AUTO 00000KT 3SM BKN020 OVC026 13/10 A2968 RMK AO1 P0004
Loading
Personal Weather Stations






























Interactive Weather Map
Tropical Storm Tracking
New forecast layout! Learn more

10-Day Weather Forecast

Advertisements
Track Severe Weather on mobile